sensor_id;sensor_type;location;lat;lon;timestamp;P1;durP1;ratioP1;P2;durP2;ratioP2
10801;SDS011;5453;50.852;7.102;2023-07-29T00:01:48;1.15;;;1.05;;
10801;SDS011;5453;50.852;7.102;2023-07-29T00:04:21;0.95;;;0.80;;
10801;SDS011;5453;50.852;7.102;2023-07-29T00:06:53;1.30;;;0.93;;
10801;SDS011;5453;50.852;7.102;2023-07-29T00:09:26;0.80;;;0.80;;
10801;SDS011;5453;50.852;7.102;2023-07-29T00:11:58;4.13;;;1.08;;
10801;SDS011;5453;50.852;7.102;2023-07-29T00:14:30;0.77;;;0.77;;
10801;SDS011;5453;50.852;7.102;2023-07-29T00:17:04;1.27;;;0.85;;
10801;SDS011;5453;50.852;7.102;2023-07-29T00:19:37;1.65;;;1.13;;
10801;SDS011;5453;50.852;7.102;2023-07-29T00:22:09;1.42;;;0.90;;
10801;SDS011;5453;50.852;7.102;2023-07-29T00:24:42;1.45;;;1.00;;
10801;SDS011;5453;50.852;7.102;2023-07-29T00:27:14;1.10;;;0.90;;
10801;SDS011;5453;50.852;7.102;2023-07-29T00:29:46;1.52;;;1.15;;
10801;SDS011;5453;50.852;7.102;2023-07-29T00:32:20;1.20;;;1.10;;
10801;SDS011;5453;50.852;7.102;2023-07-29T00:34:53;1.63;;;1.20;;
10801;SDS011;5453;50.852;7.102;2023-07-29T00:37:25;2.10;;;1.10;;
10801;SDS011;5453;50.852;7.102;2023-07-29T00:39:59;1.10;;;1.00;;
10801;SDS011;5453;50.852;7.102;2023-07-29T00:42:31;1.35;;;1.25;;
10801;SDS011;5453;50.852;7.102;2023-07-29T00:45:04;1.40;;;1.20;;
10801;SDS011;5453;50.852;7.102;2023-07-29T00:47:42;1.05;;;0.95;;
10801;SDS011;5453;50.852;7.102;2023-07-29T00:50:15;1.15;;;1.05;;
10801;SDS011;5453;50.852;7.102;2023-07-29T00:52:49;1.05;;;0.93;;
10801;SDS011;5453;50.852;7.102;2023-07-29T00:55:21;1.40;;;1.10;;
10801;SDS011;5453;50.852;7.102;2023-07-29T00:57:54;2.47;;;0.95;;
10801;SDS011;5453;50.852;7.102;2023-07-29T01:00:26;1.33;;;1.00;;
10801;SDS011;5453;50.852;7.102;2023-07-29T01:03:01;1.65;;;1.13;;
10801;SDS011;5453;50.852;7.102;2023-07-29T01:05:35;1.30;;;1.00;;
10801;SDS011;5453;50.852;7.102;2023-07-29T01:08:20;1.15;;;1.05;;
10801;SDS011;5453;50.852;7.102;2023-07-29T01:11:03;1.30;;;1.02;;
10801;SDS011;5453;50.852;7.102;2023-07-29T01:13:53;1.23;;;1.13;;
10801;SDS011;5453;50.852;7.102;2023-07-29T01:16:34;1.02;;;0.93;;
10801;SDS011;5453;50.852;7.102;2023-07-29T01:19:16;1.10;;;1.00;;
10801;SDS011;5453;50.852;7.102;2023-07-29T01:22:12;0.90;;;0.82;;
10801;SDS011;5453;50.852;7.102;2023-07-29T01:24:46;1.30;;;1.20;;
10801;SDS011;5453;50.852;7.102;2023-07-29T01:27:18;1.30;;;1.20;;
10801;SDS011;5453;50.852;7.102;2023-07-29T01:29:51;1.40;;;1.27;;
10801;SDS011;5453;50.852;7.102;2023-07-29T01:32:25;1.30;;;1.10;;
10801;SDS011;5453;50.852;7.102;2023-07-29T01:35:09;1.23;;;1.08;;
10801;SDS011;5453;50.852;7.102;2023-07-29T01:37:55;1.40;;;1.20;;
10801;SDS011;5453;50.852;7.102;2023-07-29T01:40:34;1.38;;;1.13;;
10801;SDS011;5453;50.852;7.102;2023-07-29T01:43:07;1.20;;;1.02;;
10801;SDS011;5453;50.852;7.102;2023-07-29T01:45:40;1.30;;;1.20;;
10801;SDS011;5453;50.852;7.102;2023-07-29T01:48:12;1.20;;;1.10;;
10801;SDS011;5453;50.852;7.102;2023-07-29T01:50:45;1.38;;;1.13;;
10801;SDS011;5453;50.852;7.102;2023-07-29T01:53:18;1.65;;;1.15;;
10801;SDS011;5453;50.852;7.102;2023-07-29T01:55:51;1.70;;;1.30;;
10801;SDS011;5453;50.852;7.102;2023-07-29T01:58:24;1.50;;;1.23;;
10801;SDS011;5453;50.852;7.102;2023-07-29T02:00:56;1.42;;;1.10;;
10801;SDS011;5453;50.852;7.102;2023-07-29T02:03:29;2.13;;;1.23;;
10801;SDS011;5453;50.852;7.102;2023-07-29T02:06:02;1.30;;;1.10;;
10801;SDS011;5453;50.852;7.102;2023-07-29T02:08:34;1.30;;;1.10;;
10801;SDS011;5453;50.852;7.102;2023-07-29T02:11:08;2.67;;;1.50;;
10801;SDS011;5453;50.852;7.102;2023-07-29T02:13:41;1.10;;;1.00;;
10801;SDS011;5453;50.852;7.102;2023-07-29T02:16:14;1.33;;;1.23;;
10801;SDS011;5453;50.852;7.102;2023-07-29T02:18:46;1.63;;;1.02;;
10801;SDS011;5453;50.852;7.102;2023-07-29T02:21:20;1.88;;;1.52;;
10801;SDS011;5453;50.852;7.102;2023-07-29T02:23:53;1.95;;;1.27;;
10801;SDS011;5453;50.852;7.102;2023-07-29T02:26:26;1.35;;;1.25;;
10801;SDS011;5453;50.852;7.102;2023-07-29T02:28:59;1.25;;;1.15;;
10801;SDS011;5453;50.852;7.102;2023-07-29T02:31:31;2.00;;;1.10;;
10801;SDS011;5453;50.852;7.102;2023-07-29T02:34:08;1.65;;;1.00;;
10801;SDS011;5453;50.852;7.102;2023-07-29T02:36:40;1.58;;;1.20;;
10801;SDS011;5453;50.852;7.102;2023-07-29T02:39:13;1.00;;;0.82;;
10801;SDS011;5453;50.852;7.102;2023-07-29T02:41:47;1.15;;;1.05;;
10801;SDS011;5453;50.852;7.102;2023-07-29T02:44:19;1.05;;;0.98;;
10801;SDS011;5453;50.852;7.102;2023-07-29T02:46:52;1.30;;;1.08;;
10801;SDS011;5453;50.852;7.102;2023-07-29T02:49:26;1.00;;;0.93;;
10801;SDS011;5453;50.852;7.102;2023-07-29T02:52:01;1.27;;;1.15;;
10801;SDS011;5453;50.852;7.102;2023-07-29T02:54:34;1.20;;;1.10;;
10801;SDS011;5453;50.852;7.102;2023-07-29T02:57:08;1.13;;;1.02;;
10801;SDS011;5453;50.852;7.102;2023-07-29T02:59:41;1.63;;;1.40;;
10801;SDS011;5453;50.852;7.102;2023-07-29T03:02:13;2.55;;;1.20;;
10801;SDS011;5453;50.852;7.102;2023-07-29T03:04:47;1.00;;;0.90;;
10801;SDS011;5453;50.852;7.102;2023-07-29T03:07:20;0.93;;;0.80;;
10801;SDS011;5453;50.852;7.102;2023-07-29T03:09:56;1.48;;;0.80;;
10801;SDS011;5453;50.852;7.102;2023-07-29T03:12:30;2.00;;;1.08;;
10801;SDS011;5453;50.852;7.102;2023-07-29T03:15:03;1.23;;;0.93;;
10801;SDS011;5453;50.852;7.102;2023-07-29T03:17:36;1.17;;;1.05;;
10801;SDS011;5453;50.852;7.102;2023-07-29T03:20:09;1.20;;;1.00;;
10801;SDS011;5453;50.852;7.102;2023-07-29T03:22:42;1.27;;;1.10;;
10801;SDS011;5453;50.852;7.102;2023-07-29T03:25:15;1.35;;;1.17;;
10801;SDS011;5453;50.852;7.102;2023-07-29T03:27:49;2.33;;;0.95;;
10801;SDS011;5453;50.852;7.102;2023-07-29T03:30:22;1.13;;;0.90;;
10801;SDS011;5453;50.852;7.102;2023-07-29T03:32:56;0.80;;;0.80;;
10801;SDS011;5453;50.852;7.102;2023-07-29T03:35:28;1.13;;;1.02;;
10801;SDS011;5453;50.852;7.102;2023-07-29T03:38:01;0.90;;;0.88;;
10801;SDS011;5453;50.852;7.102;2023-07-29T03:40:33;2.63;;;1.33;;
10801;SDS011;5453;50.852;7.102;2023-07-29T03:43:07;1.10;;;0.90;;
10801;SDS011;5453;50.852;7.102;2023-07-29T03:45:40;1.33;;;0.90;;
10801;SDS011;5453;50.852;7.102;2023-07-29T03:48:12;2.65;;;1.23;;
10801;SDS011;5453;50.852;7.102;2023-07-29T03:50:45;1.10;;;1.02;;
10801;SDS011;5453;50.852;7.102;2023-07-29T03:53:17;1.20;;;1.10;;
10801;SDS011;5453;50.852;7.102;2023-07-29T03:55:50;1.33;;;1.23;;
10801;SDS011;5453;50.852;7.102;2023-07-29T03:58:24;1.27;;;1.17;;
10801;SDS011;5453;50.852;7.102;2023-07-29T04:00:56;2.03;;;1.10;;
10801;SDS011;5453;50.852;7.102;2023-07-29T04:03:29;1.20;;;1.00;;
10801;SDS011;5453;50.852;7.102;2023-07-29T04:06:01;1.35;;;0.95;;
10801;SDS011;5453;50.852;7.102;2023-07-29T04:08:34;1.50;;;1.10;;
10801;SDS011;5453;50.852;7.102;2023-07-29T04:11:07;1.50;;;0.82;;
10801;SDS011;5453;50.852;7.102;2023-07-29T04:13:41;1.02;;;0.93;;
10801;SDS011;5453;50.852;7.102;2023-07-29T04:16:13;1.05;;;1.00;;
10801;SDS011;5453;50.852;7.102;2023-07-29T04:18:46;0.93;;;0.90;;
10801;SDS011;5453;50.852;7.102;2023-07-29T04:21:19;0.82;;;0.80;;
10801;SDS011;5453;50.852;7.102;2023-07-29T04:23:52;0.90;;;0.70;;
10801;SDS011;5453;50.852;7.102;2023-07-29T04:26:24;3.00;;;1.00;;
10801;SDS011;5453;50.852;7.102;2023-07-29T04:28:58;2.05;;;1.02;;
10801;SDS011;5453;50.852;7.102;2023-07-29T04:31:30;1.00;;;0.90;;
10801;SDS011;5453;50.852;7.102;2023-07-29T04:34:04;0.90;;;0.90;;
10801;SDS011;5453;50.852;7.102;2023-07-29T04:36:37;0.90;;;0.90;;
10801;SDS011;5453;50.852;7.102;2023-07-29T04:39:09;0.68;;;0.60;;
10801;SDS011;5453;50.852;7.102;2023-07-29T04:41:42;1.88;;;0.75;;
10801;SDS011;5453;50.852;7.102;2023-07-29T04:44:16;0.60;;;0.60;;
10801;SDS011;5453;50.852;7.102;2023-07-29T04:46:49;1.23;;;0.90;;
10801;SDS011;5453;50.852;7.102;2023-07-29T04:49:21;0.85;;;0.80;;
10801;SDS011;5453;50.852;7.102;2023-07-29T04:51:53;1.02;;;0.80;;
10801;SDS011;5453;50.852;7.102;2023-07-29T04:54:26;0.85;;;0.70;;
10801;SDS011;5453;50.852;7.102;2023-07-29T04:56:58;0.70;;;0.70;;
10801;SDS011;5453;50.852;7.102;2023-07-29T04:59:33;1.30;;;0.82;;
10801;SDS011;5453;50.852;7.102;2023-07-29T05:02:06;0.80;;;0.65;;
10801;SDS011;5453;50.852;7.102;2023-07-29T05:04:39;1.27;;;0.80;;
10801;SDS011;5453;50.852;7.102;2023-07-29T05:07:11;0.60;;;0.50;;
10801;SDS011;5453;50.852;7.102;2023-07-29T05:09:44;1.10;;;0.75;;
10801;SDS011;5453;50.852;7.102;2023-07-29T05:12:16;1.75;;;0.95;;
10801;SDS011;5453;50.852;7.102;2023-07-29T05:14:50;1.00;;;0.75;;
10801;SDS011;5453;50.852;7.102;2023-07-29T05:17:23;1.38;;;0.63;;
10801;SDS011;5453;50.852;7.102;2023-07-29T05:19:55;1.70;;;0.63;;
10801;SDS011;5453;50.852;7.102;2023-07-29T05:22:30;0.70;;;0.70;;
10801;SDS011;5453;50.852;7.102;2023-07-29T05:25:03;0.85;;;0.73;;
10801;SDS011;5453;50.852;7.102;2023-07-29T05:27:37;1.10;;;0.73;;
10801;SDS011;5453;50.852;7.102;2023-07-29T05:30:11;0.70;;;0.68;;
10801;SDS011;5453;50.852;7.102;2023-07-29T05:32:43;0.80;;;0.80;;
10801;SDS011;5453;50.852;7.102;2023-07-29T05:35:16;1.02;;;0.70;;
10801;SDS011;5453;50.852;7.102;2023-07-29T05:37:49;1.40;;;0.77;;
10801;SDS011;5453;50.852;7.102;2023-07-29T05:40:22;1.90;;;0.95;;
10801;SDS011;5453;50.852;7.102;2023-07-29T05:42:54;0.90;;;0.80;;
10801;SDS011;5453;50.852;7.102;2023-07-29T05:45:29;0.70;;;0.70;;
10801;SDS011;5453;50.852;7.102;2023-07-29T05:48:02;0.63;;;0.63;;
10801;SDS011;5453;50.852;7.102;2023-07-29T05:50:35;0.85;;;0.82;;
10801;SDS011;5453;50.852;7.102;2023-07-29T05:53:07;1.23;;;0.95;;
10801;SDS011;5453;50.852;7.102;2023-07-29T05:55:40;1.25;;;0.80;;
10801;SDS011;5453;50.852;7.102;2023-07-29T05:58:12;1.42;;;0.98;;
10801;SDS011;5453;50.852;7.102;2023-07-29T06:00:46;0.80;;;0.80;;
10801;SDS011;5453;50.852;7.102;2023-07-29T06:03:19;0.93;;;0.80;;
10801;SDS011;5453;50.852;7.102;2023-07-29T06:05:51;0.77;;;0.73;;
10801;SDS011;5453;50.852;7.102;2023-07-29T06:08:27;1.55;;;0.95;;
10801;SDS011;5453;50.852;7.102;2023-07-29T06:11:00;1.33;;;1.10;;
10801;SDS011;5453;50.852;7.102;2023-07-29T06:13:32;1.00;;;1.00;;
10801;SDS011;5453;50.852;7.102;2023-07-29T06:16:06;0.80;;;0.80;;
10801;SDS011;5453;50.852;7.102;2023-07-29T06:18:40;1.00;;;0.82;;
10801;SDS011;5453;50.852;7.102;2023-07-29T06:21:12;1.45;;;1.10;;
10801;SDS011;5453;50.852;7.102;2023-07-29T06:23:47;1.52;;;1.33;;
10801;SDS011;5453;50.852;7.102;2023-07-29T06:26:19;1.33;;;0.93;;
10801;SDS011;5453;50.852;7.102;2023-07-29T06:28:52;1.73;;;1.35;;
10801;SDS011;5453;50.852;7.102;2023-07-29T06:31:25;1.73;;;1.30;;
10801;SDS011;5453;50.852;7.102;2023-07-29T06:33:58;1.50;;;1.35;;
10801;SDS011;5453;50.852;7.102;2023-07-29T06:36:30;1.58;;;1.40;;
10801;SDS011;5453;50.852;7.102;2023-07-29T06:39:03;1.33;;;1.10;;
10801;SDS011;5453;50.852;7.102;2023-07-29T06:41:35;1.60;;;1.40;;
10801;SDS011;5453;50.852;7.102;2023-07-29T06:44:08;1.95;;;1.70;;
10801;SDS011;5453;50.852;7.102;2023-07-29T06:46:42;1.80;;;1.50;;
10801;SDS011;5453;50.852;7.102;2023-07-29T06:49:14;1.42;;;1.33;;
10801;SDS011;5453;50.852;7.102;2023-07-29T06:51:46;2.80;;;1.40;;
10801;SDS011;5453;50.852;7.102;2023-07-29T06:54:19;1.92;;;1.58;;
10801;SDS011;5453;50.852;7.102;2023-07-29T06:56:56;1.92;;;1.63;;
10801;SDS011;5453;50.852;7.102;2023-07-29T06:59:28;1.77;;;1.67;;
10801;SDS011;5453;50.852;7.102;2023-07-29T07:02:02;1.77;;;1.25;;
10801;SDS011;5453;50.852;7.102;2023-07-29T07:04:35;2.08;;;1.20;;
10801;SDS011;5453;50.852;7.102;2023-07-29T07:07:07;2.10;;;1.40;;
10801;SDS011;5453;50.852;7.102;2023-07-29T07:09:40;2.67;;;1.40;;
10801;SDS011;5453;50.852;7.102;2023-07-29T07:12:12;3.72;;;1.60;;
10801;SDS011;5453;50.852;7.102;2023-07-29T07:14:44;2.67;;;1.40;;
10801;SDS011;5453;50.852;7.102;2023-07-29T07:17:18;2.08;;;1.52;;
10801;SDS011;5453;50.852;7.102;2023-07-29T07:19:51;2.67;;;1.58;;
10801;SDS011;5453;50.852;7.102;2023-07-29T07:22:23;2.30;;;1.20;;
10801;SDS011;5453;50.852;7.102;2023-07-29T07:24:55;1.77;;;1.40;;
10801;SDS011;5453;50.852;7.102;2023-07-29T07:27:28;1.73;;;1.45;;
10801;SDS011;5453;50.852;7.102;2023-07-29T07:30:00;2.03;;;1.23;;
10801;SDS011;5453;50.852;7.102;2023-07-29T07:32:37;2.78;;;1.50;;
10801;SDS011;5453;50.852;7.102;2023-07-29T07:35:09;2.63;;;1.55;;
10801;SDS011;5453;50.852;7.102;2023-07-29T07:37:42;2.97;;;1.52;;
10801;SDS011;5453;50.852;7.102;2023-07-29T07:40:14;2.10;;;1.40;;
10801;SDS011;5453;50.852;7.102;2023-07-29T07:42:47;2.50;;;1.38;;
10801;SDS011;5453;50.852;7.102;2023-07-29T07:45:19;2.10;;;1.60;;
10801;SDS011;5453;50.852;7.102;2023-07-29T07:47:53;3.05;;;1.63;;
10801;SDS011;5453;50.852;7.102;2023-07-29T07:50:28;2.72;;;1.52;;
10801;SDS011;5453;50.852;7.102;2023-07-29T07:53:01;2.25;;;1.73;;
10801;SDS011;5453;50.852;7.102;2023-07-29T07:55:34;2.88;;;1.73;;
10801;SDS011;5453;50.852;7.102;2023-07-29T07:58:06;3.63;;;2.05;;
10801;SDS011;5453;50.852;7.102;2023-07-29T08:00:38;2.88;;;1.65;;
10801;SDS011;5453;50.852;7.102;2023-07-29T08:03:12;3.35;;;1.60;;
10801;SDS011;5453;50.852;7.102;2023-07-29T08:05:44;3.55;;;1.75;;
10801;SDS011;5453;50.852;7.102;2023-07-29T08:08:18;1.75;;;1.35;;
10801;SDS011;5453;50.852;7.102;2023-07-29T08:10:50;2.15;;;1.80;;
10801;SDS011;5453;50.852;7.102;2023-07-29T08:13:24;3.05;;;2.08;;
10801;SDS011;5453;50.852;7.102;2023-07-29T08:15:56;2.20;;;1.67;;
10801;SDS011;5453;50.852;7.102;2023-07-29T08:18:30;3.05;;;2.05;;
10801;SDS011;5453;50.852;7.102;2023-07-29T08:21:02;2.50;;;1.75;;
10801;SDS011;5453;50.852;7.102;2023-07-29T08:23:37;2.35;;;1.90;;
10801;SDS011;5453;50.852;7.102;2023-07-29T08:26:20;4.38;;;1.83;;
10801;SDS011;5453;50.852;7.102;2023-07-29T08:28:52;2.05;;;1.77;;
10801;SDS011;5453;50.852;7.102;2023-07-29T08:31:25;2.63;;;1.60;;
10801;SDS011;5453;50.852;7.102;2023-07-29T08:33:59;1.83;;;1.42;;
10801;SDS011;5453;50.852;7.102;2023-07-29T08:36:31;2.00;;;1.60;;
10801;SDS011;5453;50.852;7.102;2023-07-29T08:39:11;2.05;;;1.60;;
10801;SDS011;5453;50.852;7.102;2023-07-29T08:41:45;3.17;;;1.60;;
10801;SDS011;5453;50.852;7.102;2023-07-29T08:44:26;2.00;;;1.50;;
10801;SDS011;5453;50.852;7.102;2023-07-29T08:47:02;1.75;;;1.33;;
10801;SDS011;5453;50.852;7.102;2023-07-29T08:49:37;2.55;;;1.83;;
10801;SDS011;5453;50.852;7.102;2023-07-29T08:52:10;2.67;;;1.90;;
10801;SDS011;5453;50.852;7.102;2023-07-29T08:54:43;1.77;;;1.50;;
10801;SDS011;5453;50.852;7.102;2023-07-29T08:57:16;2.25;;;1.60;;
10801;SDS011;5453;50.852;7.102;2023-07-29T08:59:49;2.88;;;1.60;;
10801;SDS011;5453;50.852;7.102;2023-07-29T09:02:21;2.72;;;1.75;;
10801;SDS011;5453;50.852;7.102;2023-07-29T09:04:55;1.70;;;1.48;;
10801;SDS011;5453;50.852;7.102;2023-07-29T09:07:27;1.75;;;1.55;;
10801;SDS011;5453;50.852;7.102;2023-07-29T09:10:01;1.98;;;1.52;;
10801;SDS011;5453;50.852;7.102;2023-07-29T09:12:33;1.85;;;1.58;;
10801;SDS011;5453;50.852;7.102;2023-07-29T09:15:06;1.77;;;1.30;;
10801;SDS011;5453;50.852;7.102;2023-07-29T09:17:40;1.60;;;1.42;;
10801;SDS011;5453;50.852;7.102;2023-07-29T09:20:14;1.85;;;1.48;;
10801;SDS011;5453;50.852;7.102;2023-07-29T09:22:49;2.17;;;1.40;;
10801;SDS011;5453;50.852;7.102;2023-07-29T09:25:22;1.63;;;1.17;;
10801;SDS011;5453;50.852;7.102;2023-07-29T09:27:57;1.58;;;1.25;;
10801;SDS011;5453;50.852;7.102;2023-07-29T09:30:31;1.65;;;1.30;;
10801;SDS011;5453;50.852;7.102;2023-07-29T09:33:03;1.52;;;1.30;;
10801;SDS011;5453;50.852;7.102;2023-07-29T09:35:37;2.45;;;1.23;;
10801;SDS011;5453;50.852;7.102;2023-07-29T09:38:14;1.48;;;1.13;;
10801;SDS011;5453;50.852;7.102;2023-07-29T09:40:49;1.55;;;0.85;;
10801;SDS011;5453;50.852;7.102;2023-07-29T09:43:28;1.33;;;1.20;;
10801;SDS011;5453;50.852;7.102;2023-07-29T09:46:02;1.20;;;0.90;;
10801;SDS011;5453;50.852;7.102;2023-07-29T09:48:38;1.15;;;1.00;;
10801;SDS011;5453;50.852;7.102;2023-07-29T09:51:14;1.45;;;1.20;;
10801;SDS011;5453;50.852;7.102;2023-07-29T09:53:47;1.20;;;0.82;;
10801;SDS011;5453;50.852;7.102;2023-07-29T09:56:23;1.90;;;1.00;;
10801;SDS011;5453;50.852;7.102;2023-07-29T09:59:00;0.98;;;0.88;;
10801;SDS011;5453;50.852;7.102;2023-07-29T10:01:32;0.80;;;0.70;;
10801;SDS011;5453;50.852;7.102;2023-07-29T10:04:06;1.45;;;0.80;;
10801;SDS011;5453;50.852;7.102;2023-07-29T10:06:41;0.82;;;0.82;;
10801;SDS011;5453;50.852;7.102;2023-07-29T10:11:46;1.23;;;0.75;;
10801;SDS011;5453;50.852;7.102;2023-07-29T10:14:21;1.27;;;0.88;;
10801;SDS011;5453;50.852;7.102;2023-07-29T10:16:57;0.70;;;0.70;;
10801;SDS011;5453;50.852;7.102;2023-07-29T10:19:30;1.25;;;0.90;;
10801;SDS011;5453;50.852;7.102;2023-07-29T10:22:04;1.00;;;0.70;;
10801;SDS011;5453;50.852;7.102;2023-07-29T10:24:38;0.90;;;0.80;;
10801;SDS011;5453;50.852;7.102;2023-07-29T10:27:21;1.10;;;0.90;;
10801;SDS011;5453;50.852;7.102;2023-07-29T10:32:28;0.85;;;0.75;;
10801;SDS011;5453;50.852;7.102;2023-07-29T10:35:02;0.63;;;0.55;;
10801;SDS011;5453;50.852;7.102;2023-07-29T10:37:36;0.80;;;0.80;;
10801;SDS011;5453;50.852;7.102;2023-07-29T10:40:11;1.35;;;0.90;;
10801;SDS011;5453;50.852;7.102;2023-07-29T10:45:36;1.38;;;1.00;;
10801;SDS011;5453;50.852;7.102;2023-07-29T10:48:12;0.95;;;0.80;;
10801;SDS011;5453;50.852;7.102;2023-07-29T10:51:24;1.60;;;1.00;;
10801;SDS011;5453;50.852;7.102;2023-07-29T10:54:02;1.25;;;1.05;;
10801;SDS011;5453;50.852;7.102;2023-07-29T10:56:40;1.17;;;1.00;;
10801;SDS011;5453;50.852;7.102;2023-07-29T10:59:33;2.35;;;1.00;;
10801;SDS011;5453;50.852;7.102;2023-07-29T11:02:11;2.22;;;1.15;;
10801;SDS011;5453;50.852;7.102;2023-07-29T11:04:49;1.55;;;1.10;;
10801;SDS011;5453;50.852;7.102;2023-07-29T11:07:23;1.77;;;1.20;;
10801;SDS011;5453;50.852;7.102;2023-07-29T11:10:01;3.25;;;1.20;;
10801;SDS011;5453;50.852;7.102;2023-07-29T11:12:36;2.78;;;1.40;;
10801;SDS011;5453;50.852;7.102;2023-07-29T11:15:16;1.77;;;1.15;;
10801;SDS011;5453;50.852;7.102;2023-07-29T11:17:52;1.60;;;1.08;;
10801;SDS011;5453;50.852;7.102;2023-07-29T11:20:26;1.73;;;1.13;;
10801;SDS011;5453;50.852;7.102;2023-07-29T11:23:00;5.15;;;1.70;;
10801;SDS011;5453;50.852;7.102;2023-07-29T11:25:36;4.93;;;1.95;;
10801;SDS011;5453;50.852;7.102;2023-07-29T11:28:09;8.82;;;3.17;;
10801;SDS011;5453;50.852;7.102;2023-07-29T11:30:41;6.68;;;2.10;;
10801;SDS011;5453;50.852;7.102;2023-07-29T11:33:14;9.20;;;2.65;;
10801;SDS011;5453;50.852;7.102;2023-07-29T11:35:49;4.05;;;2.05;;
10801;SDS011;5453;50.852;7.102;2023-07-29T11:38:21;4.05;;;1.83;;
10801;SDS011;5453;50.852;7.102;2023-07-29T11:40:56;3.03;;;1.52;;
10801;SDS011;5453;50.852;7.102;2023-07-29T11:43:34;2.13;;;1.30;;
10801;SDS011;5453;50.852;7.102;2023-07-29T11:46:07;1.80;;;1.30;;
10801;SDS011;5453;50.852;7.102;2023-07-29T11:48:39;1.40;;;0.93;;
10801;SDS011;5453;50.852;7.102;2023-07-29T11:51:19;3.90;;;1.42;;
10801;SDS011;5453;50.852;7.102;2023-07-29T11:53:51;3.22;;;1.50;;
10801;SDS011;5453;50.852;7.102;2023-07-29T11:56:25;2.72;;;1.38;;
10801;SDS011;5453;50.852;7.102;2023-07-29T11:58:59;2.38;;;1.33;;
10801;SDS011;5453;50.852;7.102;2023-07-29T12:01:31;1.95;;;1.42;;
10801;SDS011;5453;50.852;7.102;2023-07-29T12:04:04;1.73;;;1.10;;
10801;SDS011;5453;50.852;7.102;2023-07-29T12:06:37;2.60;;;1.40;;
10801;SDS011;5453;50.852;7.102;2023-07-29T12:09:10;2.92;;;1.50;;
10801;SDS011;5453;50.852;7.102;2023-07-29T12:11:44;2.47;;;1.23;;
10801;SDS011;5453;50.852;7.102;2023-07-29T12:14:17;1.67;;;1.10;;
10801;SDS011;5453;50.852;7.102;2023-07-29T12:16:49;1.60;;;1.27;;
10801;SDS011;5453;50.852;7.102;2023-07-29T12:19:23;1.80;;;1.30;;
10801;SDS011;5453;50.852;7.102;2023-07-29T12:21:55;1.63;;;1.00;;
10801;SDS011;5453;50.852;7.102;2023-07-29T12:24:29;1.33;;;1.13;;
10801;SDS011;5453;50.852;7.102;2023-07-29T12:27:03;1.38;;;1.13;;
10801;SDS011;5453;50.852;7.102;2023-07-29T12:29:39;1.30;;;1.00;;
10801;SDS011;5453;50.852;7.102;2023-07-29T12:32:13;1.50;;;1.13;;
10801;SDS011;5453;50.852;7.102;2023-07-29T12:34:45;2.28;;;1.10;;
10801;SDS011;5453;50.852;7.102;2023-07-29T12:37:17;1.58;;;0.93;;
10801;SDS011;5453;50.852;7.102;2023-07-29T12:39:50;1.58;;;1.10;;
10801;SDS011;5453;50.852;7.102;2023-07-29T12:42:24;1.45;;;1.05;;
10801;SDS011;5453;50.852;7.102;2023-07-29T12:44:56;1.30;;;1.00;;
10801;SDS011;5453;50.852;7.102;2023-07-29T12:47:28;2.65;;;1.13;;
10801;SDS011;5453;50.852;7.102;2023-07-29T12:50:01;1.20;;;0.90;;
10801;SDS011;5453;50.852;7.102;2023-07-29T12:52:33;1.15;;;1.05;;
10801;SDS011;5453;50.852;7.102;2023-07-29T12:55:06;1.00;;;0.77;;
10801;SDS011;5453;50.852;7.102;2023-07-29T12:57:44;1.73;;;0.88;;
10801;SDS011;5453;50.852;7.102;2023-07-29T13:00:17;1.73;;;1.20;;
10801;SDS011;5453;50.852;7.102;2023-07-29T13:02:50;1.60;;;1.20;;
10801;SDS011;5453;50.852;7.102;2023-07-29T13:05:23;1.00;;;0.90;;
10801;SDS011;5453;50.852;7.102;2023-07-29T13:07:55;1.27;;;0.93;;
10801;SDS011;5453;50.852;7.102;2023-07-29T13:10:28;1.20;;;1.00;;
10801;SDS011;5453;50.852;7.102;2023-07-29T13:13:05;1.50;;;0.98;;
10801;SDS011;5453;50.852;7.102;2023-07-29T13:15:37;0.93;;;0.73;;
10801;SDS011;5453;50.852;7.102;2023-07-29T13:18:09;1.60;;;1.10;;
10801;SDS011;5453;50.852;7.102;2023-07-29T13:20:42;1.30;;;0.93;;
10801;SDS011;5453;50.852;7.102;2023-07-29T13:23:17;1.15;;;0.90;;
10801;SDS011;5453;50.852;7.102;2023-07-29T13:25:50;1.10;;;0.90;;
10801;SDS011;5453;50.852;7.102;2023-07-29T13:28:23;1.70;;;1.10;;
10801;SDS011;5453;50.852;7.102;2023-07-29T13:30:56;1.55;;;1.10;;
10801;SDS011;5453;50.852;7.102;2023-07-29T13:33:28;1.63;;;1.00;;
10801;SDS011;5453;50.852;7.102;2023-07-29T13:36:04;1.10;;;1.00;;
10801;SDS011;5453;50.852;7.102;2023-07-29T13:41:10;1.20;;;0.98;;
10801;SDS011;5453;50.852;7.102;2023-07-29T13:43:44;2.50;;;1.10;;
10801;SDS011;5453;50.852;7.102;2023-07-29T13:46:16;1.60;;;1.02;;
10801;SDS011;5453;50.852;7.102;2023-07-29T13:48:51;1.25;;;1.15;;
10801;SDS011;5453;50.852;7.102;2023-07-29T13:51:26;5.30;;;1.00;;
10801;SDS011;5453;50.852;7.102;2023-07-29T13:53:59;2.15;;;1.10;;
10801;SDS011;5453;50.852;7.102;2023-07-29T13:56:31;1.80;;;0.90;;
10801;SDS011;5453;50.852;7.102;2023-07-29T13:59:05;1.33;;;0.98;;
10801;SDS011;5453;50.852;7.102;2023-07-29T14:01:37;1.55;;;1.20;;
10801;SDS011;5453;50.852;7.102;2023-07-29T14:04:09;1.30;;;1.02;;
10801;SDS011;5453;50.852;7.102;2023-07-29T14:06:42;1.60;;;1.40;;
10801;SDS011;5453;50.852;7.102;2023-07-29T14:09:18;1.67;;;0.90;;
10801;SDS011;5453;50.852;7.102;2023-07-29T14:11:51;1.63;;;1.20;;
10801;SDS011;5453;50.852;7.102;2023-07-29T14:14:24;1.30;;;1.02;;
10801;SDS011;5453;50.852;7.102;2023-07-29T14:16:57;1.63;;;1.05;;
10801;SDS011;5453;50.852;7.102;2023-07-29T14:19:29;1.92;;;1.27;;
10801;SDS011;5453;50.852;7.102;2023-07-29T14:22:02;1.90;;;1.20;;
10801;SDS011;5453;50.852;7.102;2023-07-29T14:24:35;1.75;;;1.23;;
10801;SDS011;5453;50.852;7.102;2023-07-29T14:27:08;1.27;;;1.08;;
10801;SDS011;5453;50.852;7.102;2023-07-29T14:29:41;1.98;;;1.13;;
10801;SDS011;5453;50.852;7.102;2023-07-29T14:32:14;2.03;;;1.30;;
10801;SDS011;5453;50.852;7.102;2023-07-29T14:34:46;2.83;;;1.23;;
10801;SDS011;5453;50.852;7.102;2023-07-29T14:37:19;1.77;;;1.33;;
10801;SDS011;5453;50.852;7.102;2023-07-29T14:39:51;2.67;;;1.35;;
10801;SDS011;5453;50.852;7.102;2023-07-29T14:42:24;1.65;;;1.20;;
10801;SDS011;5453;50.852;7.102;2023-07-29T14:44:58;2.63;;;1.40;;
10801;SDS011;5453;50.852;7.102;2023-07-29T14:47:30;2.22;;;1.20;;
10801;SDS011;5453;50.852;7.102;2023-07-29T14:50:05;1.67;;;1.20;;
10801;SDS011;5453;50.852;7.102;2023-07-29T14:52:38;2.05;;;1.25;;
10801;SDS011;5453;50.852;7.102;2023-07-29T14:55:10;2.30;;;1.10;;
10801;SDS011;5453;50.852;7.102;2023-07-29T14:57:42;1.70;;;1.15;;
10801;SDS011;5453;50.852;7.102;2023-07-29T15:00:16;2.25;;;1.40;;
10801;SDS011;5453;50.852;7.102;2023-07-29T15:02:49;2.50;;;1.30;;
10801;SDS011;5453;50.852;7.102;2023-07-29T15:05:21;1.38;;;1.13;;
10801;SDS011;5453;50.852;7.102;2023-07-29T15:07:53;2.10;;;1.33;;
10801;SDS011;5453;50.852;7.102;2023-07-29T15:10:27;2.00;;;1.30;;
10801;SDS011;5453;50.852;7.102;2023-07-29T15:13:00;1.83;;;1.27;;
10801;SDS011;5453;50.852;7.102;2023-07-29T15:15:33;1.77;;;1.30;;
10801;SDS011;5453;50.852;7.102;2023-07-29T15:18:06;2.40;;;1.48;;
10801;SDS011;5453;50.852;7.102;2023-07-29T15:20:38;2.17;;;1.38;;
10801;SDS011;5453;50.852;7.102;2023-07-29T15:23:10;2.30;;;1.45;;
10801;SDS011;5453;50.852;7.102;2023-07-29T15:25:43;2.15;;;1.23;;
10801;SDS011;5453;50.852;7.102;2023-07-29T15:28:15;1.73;;;1.25;;
10801;SDS011;5453;50.852;7.102;2023-07-29T15:30:49;1.67;;;1.20;;
10801;SDS011;5453;50.852;7.102;2023-07-29T15:33:24;1.98;;;1.30;;
10801;SDS011;5453;50.852;7.102;2023-07-29T15:35:56;1.58;;;1.40;;
10801;SDS011;5453;50.852;7.102;2023-07-29T15:38:28;1.58;;;1.23;;
10801;SDS011;5453;50.852;7.102;2023-07-29T15:41:01;1.67;;;1.25;;
10801;SDS011;5453;50.852;7.102;2023-07-29T15:43:36;1.70;;;1.35;;
10801;SDS011;5453;50.852;7.102;2023-07-29T15:46:10;1.38;;;1.05;;
10801;SDS011;5453;50.852;7.102;2023-07-29T15:48:42;1.33;;;1.17;;
10801;SDS011;5453;50.852;7.102;2023-07-29T15:51:15;2.10;;;1.40;;